sensor_id;sensor_type;location;lat;lon;timestamp;P1;durP1;ratioP1;P2;durP2;ratioP2
3149;SDS011;32503;47.748;8.960;2022-08-21T00:01:14;1.80;;;1.70;;
3149;SDS011;32503;47.748;8.960;2022-08-21T00:03:47;1.67;;;1.57;;
3149;SDS011;32503;47.748;8.960;2022-08-21T00:06:14;2.20;;;2.10;;
3149;SDS011;32503;47.748;8.960;2022-08-21T00:08:42;2.53;;;2.33;;
3149;SDS011;32503;47.748;8.960;2022-08-21T00:11:09;2.00;;;1.90;;
3149;SDS011;32503;47.748;8.960;2022-08-21T00:13:37;1.93;;;1.83;;
3149;SDS011;32503;47.748;8.960;2022-08-21T00:16:06;2.60;;;2.50;;
3149;SDS011;32503;47.748;8.960;2022-08-21T00:18:34;2.73;;;2.63;;
3149;SDS011;32503;47.748;8.960;2022-08-21T00:21:01;2.40;;;2.30;;
3149;SDS011;32503;47.748;8.960;2022-08-21T00:23:29;2.20;;;2.10;;
3149;SDS011;32503;47.748;8.960;2022-08-21T00:25:56;2.33;;;2.20;;
3149;SDS011;32503;47.748;8.960;2022-08-21T00:28:23;12.00;;;3.07;;
3149;SDS011;32503;47.748;8.960;2022-08-21T00:30:50;11.30;;;3.50;;
3149;SDS011;32503;47.748;8.960;2022-08-21T00:33:18;3.43;;;3.10;;
3149;SDS011;32503;47.748;8.960;2022-08-21T00:35:46;2.27;;;2.17;;
3149;SDS011;32503;47.748;8.960;2022-08-21T00:38:13;3.67;;;3.47;;
3149;SDS011;32503;47.748;8.960;2022-08-21T00:40:41;2.97;;;2.87;;
3149;SDS011;32503;47.748;8.960;2022-08-21T00:43:13;2.90;;;2.80;;
3149;SDS011;32503;47.748;8.960;2022-08-21T00:45:45;3.27;;;3.17;;
3149;SDS011;32503;47.748;8.960;2022-08-21T00:48:13;3.30;;;3.10;;
3149;SDS011;32503;47.748;8.960;2022-08-21T00:50:43;3.43;;;3.23;;
3149;SDS011;32503;47.748;8.960;2022-08-21T00:53:15;5.00;;;4.70;;
3149;SDS011;32503;47.748;8.960;2022-08-21T00:55:43;3.90;;;3.70;;
3149;SDS011;32503;47.748;8.960;2022-08-21T00:58:13;3.97;;;3.77;;
3149;SDS011;32503;47.748;8.960;2022-08-21T01:00:41;3.57;;;3.37;;
3149;SDS011;32503;47.748;8.960;2022-08-21T01:03:13;4.57;;;4.10;;
3149;SDS011;32503;47.748;8.960;2022-08-21T01:05:46;3.53;;;3.43;;
3149;SDS011;32503;47.748;8.960;2022-08-21T01:08:13;3.17;;;3.07;;
3149;SDS011;32503;47.748;8.960;2022-08-21T01:10:42;2.97;;;2.87;;
3149;SDS011;32503;47.748;8.960;2022-08-21T01:13:10;3.00;;;2.90;;
3149;SDS011;32503;47.748;8.960;2022-08-21T01:15:42;2.93;;;2.70;;
3149;SDS011;32503;47.748;8.960;2022-08-21T01:18:14;2.93;;;2.83;;
3149;SDS011;32503;47.748;8.960;2022-08-21T01:20:44;2.73;;;2.50;;
3149;SDS011;32503;47.748;8.960;2022-08-21T01:23:32;2.83;;;2.47;;
3149;SDS011;32503;47.748;8.960;2022-08-21T01:26:00;2.70;;;2.60;;
3149;SDS011;32503;47.748;8.960;2022-08-21T01:28:27;2.63;;;2.53;;
3149;SDS011;32503;47.748;8.960;2022-08-21T01:30:57;2.80;;;2.70;;
3149;SDS011;32503;47.748;8.960;2022-08-21T01:33:27;2.90;;;2.70;;
3149;SDS011;32503;47.748;8.960;2022-08-21T01:35:55;2.93;;;2.57;;
3149;SDS011;32503;47.748;8.960;2022-08-21T01:38:22;2.80;;;2.70;;
3149;SDS011;32503;47.748;8.960;2022-08-21T01:40:50;4.30;;;2.17;;
3149;SDS011;32503;47.748;8.960;2022-08-21T01:43:17;5.13;;;4.63;;
3149;SDS011;32503;47.748;8.960;2022-08-21T01:45:44;3.30;;;3.10;;
3149;SDS011;32503;47.748;8.960;2022-08-21T01:48:11;9.20;;;2.77;;
3149;SDS011;32503;47.748;8.960;2022-08-21T01:50:38;2.50;;;2.40;;
3149;SDS011;32503;47.748;8.960;2022-08-21T01:53:07;3.07;;;2.87;;
3149;SDS011;32503;47.748;8.960;2022-08-21T01:55:34;2.73;;;2.63;;
3149;SDS011;32503;47.748;8.960;2022-08-21T01:58:01;4.00;;;2.77;;
3149;SDS011;32503;47.748;8.960;2022-08-21T02:00:28;5.67;;;2.70;;
3149;SDS011;32503;47.748;8.960;2022-08-21T02:02:56;6.60;;;3.10;;
3149;SDS011;32503;47.748;8.960;2022-08-21T02:05:23;7.53;;;2.53;;
3149;SDS011;32503;47.748;8.960;2022-08-21T02:07:51;2.60;;;2.50;;
3149;SDS011;32503;47.748;8.960;2022-08-21T02:10:22;2.80;;;2.70;;
3149;SDS011;32503;47.748;8.960;2022-08-21T02:12:52;3.03;;;2.83;;
3149;SDS011;32503;47.748;8.960;2022-08-21T02:15:20;4.03;;;3.63;;
3149;SDS011;32503;47.748;8.960;2022-08-21T02:17:48;4.90;;;2.53;;
3149;SDS011;32503;47.748;8.960;2022-08-21T02:20:20;3.10;;;3.00;;
3149;SDS011;32503;47.748;8.960;2022-08-21T02:22:50;3.33;;;3.23;;
3149;SDS011;32503;47.748;8.960;2022-08-21T02:25:18;3.50;;;3.30;;
3149;SDS011;32503;47.748;8.960;2022-08-21T02:27:49;4.10;;;3.90;;
3149;SDS011;32503;47.748;8.960;2022-08-21T02:30:18;3.97;;;3.77;;
3149;SDS011;32503;47.748;8.960;2022-08-21T02:32:48;5.27;;;3.50;;
3149;SDS011;32503;47.748;8.960;2022-08-21T02:35:16;3.77;;;3.50;;
3149;SDS011;32503;47.748;8.960;2022-08-21T02:37:46;3.10;;;3.00;;
3149;SDS011;32503;47.748;8.960;2022-08-21T02:40:15;3.10;;;3.00;;
3149;SDS011;32503;47.748;8.960;2022-08-21T02:42:45;3.93;;;3.20;;
3149;SDS011;32503;47.748;8.960;2022-08-21T02:45:13;3.30;;;3.20;;
3149;SDS011;32503;47.748;8.960;2022-08-21T02:47:46;3.30;;;3.10;;
3149;SDS011;32503;47.748;8.960;2022-08-21T02:50:16;4.00;;;3.70;;
3149;SDS011;32503;47.748;8.960;2022-08-21T02:52:46;3.60;;;3.40;;
3149;SDS011;32503;47.748;8.960;2022-08-21T02:55:14;3.20;;;3.00;;
3149;SDS011;32503;47.748;8.960;2022-08-21T02:57:42;3.80;;;3.70;;
3149;SDS011;32503;47.748;8.960;2022-08-21T03:00:10;3.57;;;3.47;;
3149;SDS011;32503;47.748;8.960;2022-08-21T03:02:38;3.57;;;3.47;;
3149;SDS011;32503;47.748;8.960;2022-08-21T03:05:07;5.23;;;4.80;;
3149;SDS011;32503;47.748;8.960;2022-08-21T03:07:36;4.03;;;3.73;;
3149;SDS011;32503;47.748;8.960;2022-08-21T03:10:04;3.93;;;3.73;;
3149;SDS011;32503;47.748;8.960;2022-08-21T03:12:32;3.70;;;3.50;;
3149;SDS011;32503;47.748;8.960;2022-08-21T03:15:01;4.27;;;3.97;;
3149;SDS011;32503;47.748;8.960;2022-08-21T03:17:30;4.17;;;3.97;;
3149;SDS011;32503;47.748;8.960;2022-08-21T03:19:57;4.00;;;3.80;;
3149;SDS011;32503;47.748;8.960;2022-08-21T03:22:24;4.00;;;3.70;;
3149;SDS011;32503;47.748;8.960;2022-08-21T03:24:52;3.43;;;3.23;;
3149;SDS011;32503;47.748;8.960;2022-08-21T03:27:19;4.93;;;4.67;;
3149;SDS011;32503;47.748;8.960;2022-08-21T03:29:46;3.70;;;3.50;;
3149;SDS011;32503;47.748;8.960;2022-08-21T03:32:13;3.80;;;3.50;;
3149;SDS011;32503;47.748;8.960;2022-08-21T03:34:42;4.13;;;3.80;;
3149;SDS011;32503;47.748;8.960;2022-08-21T03:37:09;4.30;;;4.10;;
3149;SDS011;32503;47.748;8.960;2022-08-21T03:39:36;4.47;;;4.20;;
3149;SDS011;32503;47.748;8.960;2022-08-21T03:42:03;6.03;;;4.30;;
3149;SDS011;32503;47.748;8.960;2022-08-21T03:44:31;5.93;;;4.80;;
3149;SDS011;32503;47.748;8.960;2022-08-21T03:46:59;4.07;;;3.87;;
3149;SDS011;32503;47.748;8.960;2022-08-21T03:49:27;4.87;;;4.57;;
3149;SDS011;32503;47.748;8.960;2022-08-21T03:51:56;3.20;;;3.10;;
3149;SDS011;32503;47.748;8.960;2022-08-21T03:54:23;4.03;;;3.83;;
3149;SDS011;32503;47.748;8.960;2022-08-21T03:56:51;4.40;;;4.00;;
3149;SDS011;32503;47.748;8.960;2022-08-21T03:59:18;4.40;;;4.20;;
3149;SDS011;32503;47.748;8.960;2022-08-21T04:01:51;4.13;;;3.93;;
3149;SDS011;32503;47.748;8.960;2022-08-21T04:04:19;4.33;;;4.03;;
3149;SDS011;32503;47.748;8.960;2022-08-21T04:06:46;4.40;;;4.20;;
3149;SDS011;32503;47.748;8.960;2022-08-21T04:09:16;4.37;;;4.17;;
3149;SDS011;32503;47.748;8.960;2022-08-21T04:11:43;3.70;;;3.50;;
3149;SDS011;32503;47.748;8.960;2022-08-21T04:14:11;3.60;;;3.40;;
3149;SDS011;32503;47.748;8.960;2022-08-21T04:16:39;4.07;;;3.87;;
3149;SDS011;32503;47.748;8.960;2022-08-21T04:19:07;4.00;;;3.80;;
3149;SDS011;32503;47.748;8.960;2022-08-21T04:21:34;3.70;;;3.50;;
3149;SDS011;32503;47.748;8.960;2022-08-21T04:24:03;5.70;;;5.30;;
3149;SDS011;32503;47.748;8.960;2022-08-21T04:26:33;5.13;;;4.73;;
3149;SDS011;32503;47.748;8.960;2022-08-21T04:29:01;4.00;;;3.80;;
3149;SDS011;32503;47.748;8.960;2022-08-21T04:31:29;5.43;;;4.13;;
3149;SDS011;32503;47.748;8.960;2022-08-21T04:33:56;4.50;;;4.20;;
3149;SDS011;32503;47.748;8.960;2022-08-21T04:36:24;4.90;;;4.50;;
3149;SDS011;32503;47.748;8.960;2022-08-21T04:38:51;4.20;;;3.90;;
3149;SDS011;32503;47.748;8.960;2022-08-21T04:41:18;5.20;;;4.90;;
3149;SDS011;32503;47.748;8.960;2022-08-21T04:43:47;4.00;;;3.80;;
3149;SDS011;32503;47.748;8.960;2022-08-21T04:46:15;3.73;;;3.53;;
3149;SDS011;32503;47.748;8.960;2022-08-21T04:48:43;4.33;;;4.13;;
3149;SDS011;32503;47.748;8.960;2022-08-21T04:51:11;3.73;;;3.53;;
3149;SDS011;32503;47.748;8.960;2022-08-21T04:53:43;4.23;;;4.03;;
3149;SDS011;32503;47.748;8.960;2022-08-21T04:56:17;4.83;;;4.30;;
3149;SDS011;32503;47.748;8.960;2022-08-21T04:58:49;4.20;;;4.00;;
3149;SDS011;32503;47.748;8.960;2022-08-21T05:01:19;4.40;;;4.00;;
3149;SDS011;32503;47.748;8.960;2022-08-21T05:03:50;4.10;;;3.90;;
3149;SDS011;32503;47.748;8.960;2022-08-21T05:06:24;3.67;;;3.47;;
3149;SDS011;32503;47.748;8.960;2022-08-21T05:08:53;4.10;;;3.90;;
3149;SDS011;32503;47.748;8.960;2022-08-21T05:11:22;3.97;;;3.77;;
3149;SDS011;32503;47.748;8.960;2022-08-21T05:13:50;3.50;;;3.30;;
3149;SDS011;32503;47.748;8.960;2022-08-21T05:16:17;3.90;;;3.60;;
3149;SDS011;32503;47.748;8.960;2022-08-21T05:18:45;4.03;;;3.83;;
3149;SDS011;32503;47.748;8.960;2022-08-21T05:21:12;4.63;;;4.33;;
3149;SDS011;32503;47.748;8.960;2022-08-21T05:23:39;4.80;;;4.50;;
3149;SDS011;32503;47.748;8.960;2022-08-21T05:26:06;5.13;;;4.77;;
3149;SDS011;32503;47.748;8.960;2022-08-21T05:28:33;4.57;;;4.33;;
3149;SDS011;32503;47.748;8.960;2022-08-21T05:31:02;4.30;;;4.10;;
3149;SDS011;32503;47.748;8.960;2022-08-21T05:33:33;4.80;;;4.50;;
3149;SDS011;32503;47.748;8.960;2022-08-21T05:36:00;5.63;;;5.17;;
3149;SDS011;32503;47.748;8.960;2022-08-21T05:38:27;7.23;;;4.63;;
3149;SDS011;32503;47.748;8.960;2022-08-21T05:40:54;4.10;;;3.90;;
3149;SDS011;32503;47.748;8.960;2022-08-21T05:43:21;5.80;;;5.40;;
3149;SDS011;32503;47.748;8.960;2022-08-21T05:45:48;5.87;;;5.27;;
3149;SDS011;32503;47.748;8.960;2022-08-21T05:48:18;5.70;;;5.30;;
3149;SDS011;32503;47.748;8.960;2022-08-21T05:50:48;6.60;;;5.93;;
3149;SDS011;32503;47.748;8.960;2022-08-21T05:53:18;5.77;;;5.40;;
3149;SDS011;32503;47.748;8.960;2022-08-21T05:55:46;6.83;;;6.27;;
3149;SDS011;32503;47.748;8.960;2022-08-21T05:58:14;5.90;;;5.50;;
3149;SDS011;32503;47.748;8.960;2022-08-21T06:00:44;5.33;;;5.00;;
3149;SDS011;32503;47.748;8.960;2022-08-21T06:03:14;5.60;;;5.30;;
3149;SDS011;32503;47.748;8.960;2022-08-21T06:05:45;7.33;;;6.60;;
3149;SDS011;32503;47.748;8.960;2022-08-21T06:08:13;5.50;;;5.10;;
3149;SDS011;32503;47.748;8.960;2022-08-21T06:10:41;5.93;;;5.50;;
3149;SDS011;32503;47.748;8.960;2022-08-21T06:13:09;5.67;;;5.17;;
3149;SDS011;32503;47.748;8.960;2022-08-21T06:15:37;6.67;;;6.03;;
3149;SDS011;32503;47.748;8.960;2022-08-21T06:18:04;5.20;;;4.90;;
3149;SDS011;32503;47.748;8.960;2022-08-21T06:20:33;5.83;;;5.43;;
3149;SDS011;32503;47.748;8.960;2022-08-21T06:23:00;6.27;;;5.80;;
3149;SDS011;32503;47.748;8.960;2022-08-21T06:25:28;5.90;;;5.50;;
3149;SDS011;32503;47.748;8.960;2022-08-21T06:28:00;6.70;;;5.17;;
3149;SDS011;32503;47.748;8.960;2022-08-21T06:30:29;6.23;;;5.77;;
3149;SDS011;32503;47.748;8.960;2022-08-21T06:32:56;6.77;;;6.10;;
3149;SDS011;32503;47.748;8.960;2022-08-21T06:35:24;5.53;;;5.13;;
3149;SDS011;32503;47.748;8.960;2022-08-21T06:37:52;6.43;;;5.87;;
3149;SDS011;32503;47.748;8.960;2022-08-21T06:40:20;7.33;;;6.63;;
3149;SDS011;32503;47.748;8.960;2022-08-21T06:42:47;6.47;;;5.87;;
3149;SDS011;32503;47.748;8.960;2022-08-21T06:45:15;7.83;;;7.23;;
3149;SDS011;32503;47.748;8.960;2022-08-21T06:47:42;6.33;;;5.93;;
3149;SDS011;32503;47.748;8.960;2022-08-21T06:50:10;6.90;;;6.30;;
3149;SDS011;32503;47.748;8.960;2022-08-21T06:52:37;6.37;;;5.87;;
3149;SDS011;32503;47.748;8.960;2022-08-21T06:55:08;6.10;;;5.70;;
3149;SDS011;32503;47.748;8.960;2022-08-21T06:57:36;6.43;;;5.83;;
3149;SDS011;32503;47.748;8.960;2022-08-21T07:00:03;5.80;;;5.50;;
3149;SDS011;32503;47.748;8.960;2022-08-21T07:02:33;5.37;;;4.97;;
3149;SDS011;32503;47.748;8.960;2022-08-21T07:05:00;6.33;;;5.93;;
3149;SDS011;32503;47.748;8.960;2022-08-21T07:07:27;5.23;;;4.83;;
3149;SDS011;32503;47.748;8.960;2022-08-21T07:09:54;6.83;;;6.33;;
3149;SDS011;32503;47.748;8.960;2022-08-21T07:12:23;5.73;;;5.23;;
3149;SDS011;32503;47.748;8.960;2022-08-21T07:14:50;7.23;;;6.63;;
3149;SDS011;32503;47.748;8.960;2022-08-21T07:17:18;5.23;;;5.03;;
3149;SDS011;32503;47.748;8.960;2022-08-21T07:19:45;6.80;;;6.17;;
3149;SDS011;32503;47.748;8.960;2022-08-21T07:22:12;6.30;;;5.80;;
3149;SDS011;32503;47.748;8.960;2022-08-21T07:24:42;5.70;;;5.30;;
3149;SDS011;32503;47.748;8.960;2022-08-21T07:27:10;6.53;;;6.07;;
3149;SDS011;32503;47.748;8.960;2022-08-21T07:29:38;6.70;;;6.27;;
3149;SDS011;32503;47.748;8.960;2022-08-21T07:32:05;6.20;;;5.70;;
3149;SDS011;32503;47.748;8.960;2022-08-21T07:34:32;6.93;;;6.33;;
3149;SDS011;32503;47.748;8.960;2022-08-21T07:37:00;6.87;;;6.33;;
3149;SDS011;32503;47.748;8.960;2022-08-21T07:39:27;6.90;;;6.30;;
3149;SDS011;32503;47.748;8.960;2022-08-21T07:41:54;8.33;;;7.53;;
3149;SDS011;32503;47.748;8.960;2022-08-21T07:44:21;9.33;;;8.20;;
3149;SDS011;32503;47.748;8.960;2022-08-21T07:46:49;8.67;;;7.87;;
3149;SDS011;32503;47.748;8.960;2022-08-21T07:49:16;6.50;;;6.10;;
3149;SDS011;32503;47.748;8.960;2022-08-21T07:51:43;6.10;;;5.60;;
3149;SDS011;32503;47.748;8.960;2022-08-21T07:54:11;7.73;;;7.03;;
3149;SDS011;32503;47.748;8.960;2022-08-21T07:56:38;7.00;;;6.40;;
3149;SDS011;32503;47.748;8.960;2022-08-21T07:59:05;6.07;;;5.57;;
3149;SDS011;32503;47.748;8.960;2022-08-21T08:01:32;5.73;;;5.33;;
3149;SDS011;32503;47.748;8.960;2022-08-21T08:04:01;6.20;;;5.80;;
3149;SDS011;32503;47.748;8.960;2022-08-21T08:06:31;5.97;;;5.53;;
3149;SDS011;32503;47.748;8.960;2022-08-21T08:08:58;5.83;;;5.47;;
3149;SDS011;32503;47.748;8.960;2022-08-21T08:11:27;6.53;;;6.10;;
3149;SDS011;32503;47.748;8.960;2022-08-21T08:13:54;6.57;;;6.17;;
3149;SDS011;32503;47.748;8.960;2022-08-21T08:16:23;6.57;;;6.07;;
3149;SDS011;32503;47.748;8.960;2022-08-21T08:18:50;6.33;;;6.03;;
3149;SDS011;32503;47.748;8.960;2022-08-21T08:21:20;5.90;;;5.47;;
3149;SDS011;32503;47.748;8.960;2022-08-21T08:23:48;5.03;;;4.73;;
3149;SDS011;32503;47.748;8.960;2022-08-21T08:26:15;4.50;;;4.30;;
3149;SDS011;32503;47.748;8.960;2022-08-21T08:28:42;4.33;;;4.13;;
3149;SDS011;32503;47.748;8.960;2022-08-21T08:31:11;5.33;;;5.03;;
3149;SDS011;32503;47.748;8.960;2022-08-21T08:33:39;4.43;;;4.23;;
3149;SDS011;32503;47.748;8.960;2022-08-21T08:36:11;5.33;;;4.50;;
3149;SDS011;32503;47.748;8.960;2022-08-21T08:38:43;4.03;;;3.50;;
3149;SDS011;32503;47.748;8.960;2022-08-21T08:41:12;4.10;;;3.90;;
3149;SDS011;32503;47.748;8.960;2022-08-21T08:43:42;4.17;;;3.90;;
3149;SDS011;32503;47.748;8.960;2022-08-21T08:46:16;4.40;;;4.20;;
3149;SDS011;32503;47.748;8.960;2022-08-21T08:48:57;4.20;;;4.00;;
3149;SDS011;32503;47.748;8.960;2022-08-21T08:51:34;3.77;;;3.63;;
3149;SDS011;32503;47.748;8.960;2022-08-21T08:54:11;4.37;;;3.93;;
3149;SDS011;32503;47.748;8.960;2022-08-21T08:56:45;3.70;;;3.60;;
3149;SDS011;32503;47.748;8.960;2022-08-21T08:59:13;3.57;;;3.47;;
3149;SDS011;32503;47.748;8.960;2022-08-21T09:01:45;3.90;;;3.70;;
3149;SDS011;32503;47.748;8.960;2022-08-21T09:04:13;4.10;;;3.87;;
3149;SDS011;32503;47.748;8.960;2022-08-21T09:06:51;3.43;;;3.33;;
3149;SDS011;32503;47.748;8.960;2022-08-21T09:09:34;4.03;;;3.83;;
3149;SDS011;32503;47.748;8.960;2022-08-21T09:12:17;3.33;;;3.10;;
3149;SDS011;32503;47.748;8.960;2022-08-21T09:15:06;4.30;;;4.00;;
3149;SDS011;32503;47.748;8.960;2022-08-21T09:17:59;3.40;;;3.30;;
3149;SDS011;32503;47.748;8.960;2022-08-21T09:20:56;3.93;;;3.73;;
3149;SDS011;32503;47.748;8.960;2022-08-21T09:23:38;3.10;;;2.90;;
3149;SDS011;32503;47.748;8.960;2022-08-21T09:26:18;3.77;;;3.57;;
3149;SDS011;32503;47.748;8.960;2022-08-21T09:28:51;4.80;;;3.20;;
3149;SDS011;32503;47.748;8.960;2022-08-21T09:31:21;3.13;;;2.90;;
3149;SDS011;32503;47.748;8.960;2022-08-21T09:34:03;2.80;;;2.70;;
3149;SDS011;32503;47.748;8.960;2022-08-21T09:36:35;3.87;;;3.60;;
3149;SDS011;32503;47.748;8.960;2022-08-21T09:39:06;3.07;;;2.87;;
3149;SDS011;32503;47.748;8.960;2022-08-21T09:41:37;3.63;;;3.43;;
3149;SDS011;32503;47.748;8.960;2022-08-21T09:44:06;4.00;;;3.80;;
3149;SDS011;32503;47.748;8.960;2022-08-21T09:46:34;3.47;;;3.27;;
3149;SDS011;32503;47.748;8.960;2022-08-21T09:49:02;3.70;;;3.47;;
3149;SDS011;32503;47.748;8.960;2022-08-21T09:51:31;3.90;;;3.70;;
3149;SDS011;32503;47.748;8.960;2022-08-21T09:54:10;3.00;;;2.80;;
3149;SDS011;32503;47.748;8.960;2022-08-21T09:56:53;3.33;;;3.10;;
3149;SDS011;32503;47.748;8.960;2022-08-21T09:59:40;3.20;;;3.00;;
3149;SDS011;32503;47.748;8.960;2022-08-21T10:02:23;3.60;;;3.40;;
3149;SDS011;32503;47.748;8.960;2022-08-21T10:04:55;4.40;;;4.10;;
3149;SDS011;32503;47.748;8.960;2022-08-21T10:07:26;4.37;;;4.13;;
3149;SDS011;32503;47.748;8.960;2022-08-21T10:10:03;3.77;;;3.57;;
3149;SDS011;32503;47.748;8.960;2022-08-21T10:12:42;4.83;;;3.77;;
3149;SDS011;32503;47.748;8.960;2022-08-21T10:15:22;3.83;;;3.63;;
3149;SDS011;32503;47.748;8.960;2022-08-21T10:18:11;4.20;;;4.00;;
3149;SDS011;32503;47.748;8.960;2022-08-21T10:20:49;3.70;;;3.43;;
3149;SDS011;32503;47.748;8.960;2022-08-21T10:23:29;3.90;;;3.60;;
3149;SDS011;32503;47.748;8.960;2022-08-21T10:26:11;4.27;;;4.00;;
3149;SDS011;32503;47.748;8.960;2022-08-21T10:29:05;4.50;;;4.20;;
3149;SDS011;32503;47.748;8.960;2022-08-21T10:32:04;3.40;;;3.30;;
3149;SDS011;32503;47.748;8.960;2022-08-21T10:34:45;3.73;;;3.43;;
3149;SDS011;32503;47.748;8.960;2022-08-21T10:37:23;4.07;;;3.77;;
3149;SDS011;32503;47.748;8.960;2022-08-21T10:40:07;4.37;;;4.13;;
3149;SDS011;32503;47.748;8.960;2022-08-21T10:42:49;4.67;;;3.67;;
3149;SDS011;32503;47.748;8.960;2022-08-21T10:45:38;4.40;;;4.10;;
3149;SDS011;32503;47.748;8.960;2022-08-21T10:48:20;3.30;;;3.10;;
3149;SDS011;32503;47.748;8.960;2022-08-21T10:50:55;3.43;;;3.23;;
3149;SDS011;32503;47.748;8.960;2022-08-21T10:53:35;3.70;;;3.50;;
3149;SDS011;32503;47.748;8.960;2022-08-21T10:56:12;7.63;;;3.80;;
3149;SDS011;32503;47.748;8.960;2022-08-21T10:58:49;3.80;;;3.50;;
3149;SDS011;32503;47.748;8.960;2022-08-21T11:01:33;4.17;;;3.30;;
3149;SDS011;32503;47.748;8.960;2022-08-21T11:04:12;3.93;;;3.73;;
3149;SDS011;32503;47.748;8.960;2022-08-21T11:06:46;3.23;;;3.03;;
3149;SDS011;32503;47.748;8.960;2022-08-21T11:09:24;3.57;;;3.27;;
3149;SDS011;32503;47.748;8.960;2022-08-21T11:11:54;3.90;;;3.23;;
3149;SDS011;32503;47.748;8.960;2022-08-21T11:14:30;2.93;;;2.83;;
3149;SDS011;32503;47.748;8.960;2022-08-21T11:17:10;3.10;;;3.00;;
3149;SDS011;32503;47.748;8.960;2022-08-21T11:19:40;4.33;;;3.23;;
3149;SDS011;32503;47.748;8.960;2022-08-21T11:22:17;3.57;;;3.37;;
3149;SDS011;32503;47.748;8.960;2022-08-21T11:24:52;2.90;;;2.80;;
3149;SDS011;32503;47.748;8.960;2022-08-21T11:27:28;3.00;;;2.90;;
3149;SDS011;32503;47.748;8.960;2022-08-21T11:30:03;3.13;;;2.93;;
3149;SDS011;32503;47.748;8.960;2022-08-21T11:32:41;3.40;;;3.30;;
3149;SDS011;32503;47.748;8.960;2022-08-21T11:35:34;2.53;;;2.43;;
3149;SDS011;32503;47.748;8.960;2022-08-21T11:38:15;3.20;;;3.00;;
3149;SDS011;32503;47.748;8.960;2022-08-21T11:41:02;2.50;;;2.40;;
3149;SDS011;32503;47.748;8.960;2022-08-21T11:43:43;3.40;;;3.10;;
3149;SDS011;32503;47.748;8.960;2022-08-21T11:46:22;2.40;;;2.30;;
3149;SDS011;32503;47.748;8.960;2022-08-21T11:49:03;2.60;;;2.40;;
3149;SDS011;32503;47.748;8.960;2022-08-21T11:51:48;3.13;;;2.93;;
3149;SDS011;32503;47.748;8.960;2022-08-21T11:54:24;3.63;;;2.30;;
3149;SDS011;32503;47.748;8.960;2022-08-21T11:56:58;2.70;;;2.50;;
3149;SDS011;32503;47.748;8.960;2022-08-21T11:59:32;2.10;;;2.00;;
3149;SDS011;32503;47.748;8.960;2022-08-21T12:02:09;2.27;;;2.17;;
3149;SDS011;32503;47.748;8.960;2022-08-21T12:04:44;2.00;;;1.90;;
3149;SDS011;32503;47.748;8.960;2022-08-21T12:07:15;2.10;;;2.00;;
3149;SDS011;32503;47.748;8.960;2022-08-21T12:09:56;2.30;;;2.20;;
3149;SDS011;32503;47.748;8.960;2022-08-21T12:12:25;2.43;;;2.33;;
3149;SDS011;32503;47.748;8.960;2022-08-21T12:15:11;2.50;;;2.40;;
3149;SDS011;32503;47.748;8.960;2022-08-21T12:17:52;2.27;;;2.17;;
3149;SDS011;32503;47.748;8.960;2022-08-21T12:20:34;2.63;;;2.53;;
3149;SDS011;32503;47.748;8.960;2022-08-21T12:23:15;2.60;;;2.40;;
3149;SDS011;32503;47.748;8.960;2022-08-21T12:29:05;2.63;;;2.43;;
3149;SDS011;32503;47.748;8.960;2022-08-21T12:31:54;2.20;;;1.97;;
3149;SDS011;32503;47.748;8.960;2022-08-21T12:34:28;2.20;;;2.10;;
3149;SDS011;32503;47.748;8.960;2022-08-21T12:37:04;2.73;;;2.53;;
3149;SDS011;32503;47.748;8.960;2022-08-21T12:39:43;2.63;;;2.53;;
3149;SDS011;32503;47.748;8.960;2022-08-21T12:42:15;4.23;;;2.60;;
3149;SDS011;32503;47.748;8.960;2022-08-21T12:44:48;1.90;;;1.80;;
3149;SDS011;32503;47.748;8.960;2022-08-21T12:47:22;2.43;;;2.30;;
3149;SDS011;32503;47.748;8.960;2022-08-21T12:49:58;4.50;;;1.90;;
3149;SDS011;32503;47.748;8.960;2022-08-21T12:52:34;1.60;;;1.50;;
3149;SDS011;32503;47.748;8.960;2022-08-21T12:55:07;1.80;;;1.70;;
3149;SDS011;32503;47.748;8.960;2022-08-21T12:57:39;1.93;;;1.83;;
3149;SDS011;32503;47.748;8.960;2022-08-21T13:00:09;1.73;;;1.63;;
3149;SDS011;32503;47.748;8.960;2022-08-21T13:02:42;2.10;;;2.00;;
3149;SDS011;32503;47.748;8.960;2022-08-21T13:05:15;1.60;;;1.50;;
3149;SDS011;32503;47.748;8.960;2022-08-21T13:07:52;1.60;;;1.50;;
3149;SDS011;32503;47.748;8.960;2022-08-21T13:10:20;1.50;;;1.40;;
3149;SDS011;32503;47.748;8.960;2022-08-21T13:12:51;2.00;;;1.37;;
3149;SDS011;32503;47.748;8.960;2022-08-21T13:15:23;1.60;;;1.50;;
3149;SDS011;32503;47.748;8.960;2022-08-21T13:17:55;1.40;;;1.30;;
3149;SDS011;32503;47.748;8.960;2022-08-21T13:20:28;2.50;;;1.50;;
3149;SDS011;32503;47.748;8.960;2022-08-21T13:22:59;1.80;;;1.70;;
3149;SDS011;32503;47.748;8.960;2022-08-21T13:25:29;1.57;;;1.47;;
3149;SDS011;32503;47.748;8.960;2022-08-21T13:28:04;1.60;;;1.50;;
3149;SDS011;32503;47.748;8.960;2022-08-21T13:30:37;1.80;;;1.70;;
3149;SDS011;32503;47.748;8.960;2022-08-21T13:33:08;1.60;;;1.50;;
3149;SDS011;32503;47.748;8.960;2022-08-21T13:35:45;1.67;;;1.57;;
3149;SDS011;32503;47.748;8.960;2022-08-21T13:38:18;2.30;;;2.20;;
3149;SDS011;32503;47.748;8.960;2022-08-21T13:40:49;1.90;;;1.80;;
3149;SDS011;32503;47.748;8.960;2022-08-21T13:43:22;1.83;;;1.73;;
3149;SDS011;32503;47.748;8.960;2022-08-21T13:45:54;1.83;;;1.73;;
3149;SDS011;32503;47.748;8.960;2022-08-21T13:48:23;1.70;;;1.60;;
3149;SDS011;32503;47.748;8.960;2022-08-21T13:50:54;1.43;;;1.33;;
3149;SDS011;32503;47.748;8.960;2022-08-21T13:53:27;2.10;;;2.00;;
3149;SDS011;32503;47.748;8.960;2022-08-21T13:55:57;1.70;;;1.60;;
3149;SDS011;32503;47.748;8.960;2022-08-21T13:58:28;2.00;;;1.90;;
3149;SDS011;32503;47.748;8.960;2022-08-21T14:00:57;1.97;;;1.87;;
3149;SDS011;32503;47.748;8.960;2022-08-21T14:03:29;1.60;;;1.50;;
3149;SDS011;32503;47.748;8.960;2022-08-21T14:06:01;1.80;;;1.70;;
3149;SDS011;32503;47.748;8.960;2022-08-21T14:08:38;1.87;;;1.77;;
3149;SDS011;32503;47.748;8.960;2022-08-21T14:11:09;1.70;;;1.60;;
3149;SDS011;32503;47.748;8.960;2022-08-21T14:13:39;1.40;;;1.30;;
3149;SDS011;32503;47.748;8.960;2022-08-21T14:16:14;1.73;;;1.63;;
3149;SDS011;32503;47.748;8.960;2022-08-21T14:18:47;1.63;;;1.43;;
3149;SDS011;32503;47.748;8.960;2022-08-21T14:21:26;1.50;;;1.30;;
3149;SDS011;32503;47.748;8.960;2022-08-21T14:24:06;1.50;;;1.40;;
3149;SDS011;32503;47.748;8.960;2022-08-21T14:26:42;1.50;;;1.40;;
3149;SDS011;32503;47.748;8.960;2022-08-21T14:29:13;1.80;;;1.70;;
3149;SDS011;32503;47.748;8.960;2022-08-21T14:31:48;1.70;;;1.60;;
3149;SDS011;32503;47.748;8.960;2022-08-21T14:34:17;1.87;;;1.77;;
3149;SDS011;32503;47.748;8.960;2022-08-21T14:36:44;1.63;;;1.53;;
3149;SDS011;32503;47.748;8.960;2022-08-21T14:39:14;1.67;;;1.57;;
3149;SDS011;32503;47.748;8.960;2022-08-21T14:41:41;1.60;;;1.50;;
3149;SDS011;32503;47.748;8.960;2022-08-21T14:44:11;2.23;;;1.60;;
3149;SDS011;32503;47.748;8.960;2022-08-21T14:46:38;3.90;;;1.70;;
3149;SDS011;32503;47.748;8.960;2022-08-21T14:49:06;1.70;;;1.60;;
3149;SDS011;32503;47.748;8.960;2022-08-21T14:51:33;1.80;;;1.70;;
3149;SDS011;32503;47.748;8.960;2022-08-21T14:54:00;1.50;;;1.40;;
3149;SDS011;32503;47.748;8.960;2022-08-21T14:56:28;1.77;;;1.67;;
3149;SDS011;32503;47.748;8.960;2022-08-21T14:58:55;2.10;;;2.00;;
3149;SDS011;32503;47.748;8.960;2022-08-21T15:01:29;1.83;;;1.73;;
3149;SDS011;32503;47.748;8.960;2022-08-21T15:03:58;1.63;;;1.53;;
3149;SDS011;32503;47.748;8.960;2022-08-21T15:06:25;1.70;;;1.60;;
3149;SDS011;32503;47.748;8.960;2022-08-21T15:08:53;1.60;;;1.50;;
3149;SDS011;32503;47.748;8.960;2022-08-21T15:11:21;1.83;;;1.73;;
3149;SDS011;32503;47.748;8.960;2022-08-21T15:13:53;1.67;;;1.57;;
3149;SDS011;32503;47.748;8.960;2022-08-21T15:16:23;1.40;;;1.30;;
3149;SDS011;32503;47.748;8.960;2022-08-21T15:18:52;1.70;;;1.60;;
3149;SDS011;32503;47.748;8.960;2022-08-21T15:21:19;1.63;;;1.53;;
3149;SDS011;32503;47.748;8.960;2022-08-21T15:23:47;2.00;;;1.90;;
3149;SDS011;32503;47.748;8.960;2022-08-21T15:26:14;1.87;;;1.77;;
3149;SDS011;32503;47.748;8.960;2022-08-21T15:28:41;1.63;;;1.53;;